createdAt,value
2023-02-28T00:01:28.826Z,48.14
2023-02-28T00:03:56.980Z,47.87
2023-02-28T00:06:25.148Z,47.78
2023-02-28T00:08:52.934Z,47.68
2023-02-28T00:11:22.609Z,47.80
2023-02-28T00:13:50.471Z,47.74
2023-02-28T00:16:20.515Z,47.68
2023-02-28T00:18:49.468Z,47.68
2023-02-28T00:21:17.552Z,47.77
2023-02-28T00:23:45.835Z,47.96
2023-02-28T00:26:13.792Z,48.14
2023-02-28T00:28:42.879Z,47.87
2023-02-28T00:31:10.664Z,47.96
2023-02-28T00:33:38.466Z,48.00
2023-02-28T00:36:08.391Z,48.04
2023-02-28T00:38:36.149Z,48.04
2023-02-28T00:41:05.945Z,48.11
2023-02-28T00:43:35.205Z,47.96
2023-02-28T00:46:05.689Z,48.37
2023-02-28T00:48:33.760Z,47.98
2023-02-28T00:51:01.761Z,48.06
2023-02-28T00:53:29.836Z,47.98
2023-02-28T00:55:57.630Z,48.21
2023-02-28T00:58:25.333Z,48.42
2023-02-28T01:00:53.711Z,48.39
2023-02-28T01:03:24.463Z,48.11
2023-02-28T01:05:54.223Z,48.10
2023-02-28T01:08:22.188Z,48.25
2023-02-28T01:10:49.958Z,48.10
2023-02-28T01:13:18.579Z,48.35
2023-02-28T01:15:51.144Z,48.15
2023-02-28T01:18:18.954Z,48.28
2023-02-28T01:20:48.161Z,48.31
2023-02-28T01:23:15.929Z,48.65
2023-02-28T01:25:43.721Z,48.69
2023-02-28T01:28:11.460Z,48.12
2023-02-28T01:30:39.156Z,48.37
2023-02-28T01:33:06.854Z,48.37
2023-02-28T01:35:35.071Z,48.39
2023-02-28T01:38:20.402Z,48.44
2023-02-28T01:40:48.921Z,48.36
2023-02-28T01:43:24.239Z,48.28
2023-02-28T01:45:52.845Z,48.58
2023-02-28T01:48:23.102Z,48.19
2023-02-28T01:50:51.691Z,48.16
2023-02-28T01:53:23.818Z,48.54
2023-02-28T01:55:55.026Z,48.41
2023-02-28T01:58:23.324Z,48.66
2023-02-28T02:00:51.438Z,48.85
2023-02-28T02:03:22.361Z,48.27
2023-02-28T02:05:50.181Z,48.74
2023-02-28T02:08:24.316Z,48.83
2023-02-28T02:10:55.109Z,48.82
2023-02-28T02:13:47.395Z,48.54
2023-02-28T02:16:30.204Z,48.79
2023-02-28T02:19:13.417Z,48.54
2023-02-28T02:22:08.179Z,48.59
2023-02-28T02:25:00.816Z,48.46
2023-02-28T02:27:49.807Z,48.83
2023-02-28T02:30:43.145Z,48.62
2023-02-28T02:33:38.377Z,49.02
2023-02-28T02:36:15.055Z,48.70
2023-02-28T02:38:51.749Z,48.73
2023-02-28T02:41:24.657Z,49.00
2023-02-28T02:43:54.982Z,48.42
2023-02-28T02:46:27.649Z,48.72
2023-02-28T02:48:59.378Z,48.68
2023-02-28T02:51:30.325Z,48.52
2023-02-28T02:54:04.170Z,48.42
2023-02-28T02:56:35.377Z,48.17
2023-02-28T02:59:06.343Z,48.47
2023-02-28T03:01:36.826Z,48.53
2023-02-28T03:04:08.850Z,48.57
2023-02-28T03:06:38.123Z,48.86
2023-02-28T03:09:06.436Z,48.66
2023-02-28T03:11:35.046Z,48.51
2023-02-28T03:14:37.470Z,48.43
2023-02-28T03:17:22.953Z,48.42
2023-02-28T03:20:00.836Z,48.98
2023-02-28T03:22:50.589Z,48.84
2023-02-28T03:25:29.110Z,49.07
2023-02-28T03:28:05.556Z,49.14
2023-02-28T03:30:41.623Z,48.86
2023-02-28T03:33:15.027Z,48.99
2023-02-28T03:35:46.592Z,48.38
2023-02-28T03:38:21.563Z,48.43
2023-02-28T03:40:53.145Z,48.47
2023-02-28T03:43:30.258Z,48.99
2023-02-28T03:46:00.970Z,48.92
2023-02-28T03:48:34.865Z,48.35
2023-02-28T03:51:05.384Z,48.88
2023-02-28T03:53:37.728Z,48.71
2023-02-28T03:56:11.359Z,48.89
2023-02-28T03:58:45.315Z,48.57
2023-02-28T04:01:19.001Z,48.51
2023-02-28T04:03:46.841Z,48.46
2023-02-28T04:06:18.815Z,48.60
2023-02-28T04:08:48.179Z,48.90
2023-02-28T04:11:22.363Z,49.31
2023-02-28T04:13:50.348Z,49.04
2023-02-28T04:16:33.393Z,48.83
2023-02-28T04:19:04.025Z,48.90
2023-02-28T04:21:32.174Z,49.33
2023-02-28T04:24:01.773Z,48.94
2023-02-28T04:26:31.857Z,48.73
2023-02-28T04:28:59.640Z,49.37
2023-02-28T04:31:28.017Z,49.39
2023-02-28T04:33:56.153Z,49.04
2023-02-28T04:36:24.219Z,48.60
2023-02-28T04:38:52.428Z,48.63
2023-02-28T04:41:21.745Z,48.83
2023-02-28T04:43:49.435Z,48.80
2023-02-28T04:46:18.237Z,49.18
2023-02-28T04:48:46.607Z,49.31
2023-02-28T04:51:16.136Z,49.36
2023-02-28T04:53:44.921Z,48.85
2023-02-28T04:56:14.255Z,48.94
2023-02-28T04:58:43.781Z,48.95
2023-02-28T05:01:20.540Z,49.05
2023-02-28T05:03:49.056Z,48.90
2023-02-28T05:06:17.355Z,48.84
2023-02-28T05:08:45.231Z,48.83
2023-02-28T05:11:18.429Z,49.27
2023-02-28T05:13:47.948Z,48.88
2023-02-28T05:16:16.077Z,49.37
2023-02-28T05:18:45.571Z,49.02
2023-02-28T05:21:31.704Z,49.16
2023-02-28T05:24:01.657Z,49.00
2023-02-28T05:26:29.851Z,48.91
2023-02-28T05:28:59.106Z,49.03
2023-02-28T05:31:27.065Z,48.75
2023-02-28T05:33:55.032Z,48.83
2023-02-28T05:36:23.244Z,48.91
2023-02-28T05:38:51.698Z,48.96
2023-02-28T05:41:21.243Z,49.41
2023-02-28T05:43:49.678Z,49.34
2023-02-28T05:46:18.964Z,49.50
2023-02-28T05:48:49.264Z,49.39
2023-02-28T05:51:17.555Z,48.95
2023-02-28T05:53:45.430Z,49.38
2023-02-28T05:56:13.122Z,49.34
2023-02-28T05:58:40.831Z,49.27
2023-02-28T06:01:25.464Z,48.86
2023-02-28T06:03:53.855Z,49.46
2023-02-28T06:06:21.518Z,48.42
2023-02-28T06:08:49.281Z,48.03
2023-02-28T06:11:17.015Z,47.97
2023-02-28T06:13:44.755Z,47.90
2023-02-28T06:16:13.783Z,47.61
2023-02-28T06:18:42.893Z,47.66
2023-02-28T06:21:10.643Z,48.13
2023-02-28T06:23:38.431Z,48.54
2023-02-28T06:26:06.635Z,48.51
2023-02-28T06:28:34.482Z,48.11
2023-02-28T06:31:07.261Z,47.72
2023-02-28T06:33:35.208Z,47.55
2023-02-28T06:36:04.753Z,47.23
2023-02-28T06:38:32.696Z,47.08
2023-02-28T06:41:02.047Z,47.17
2023-02-28T06:43:32.321Z,47.47
2023-02-28T06:46:02.518Z,47.83
2023-02-28T06:48:30.483Z,47.89
2023-02-28T06:51:06.160Z,47.79
2023-02-28T06:53:34.478Z,47.87
2023-02-28T06:56:06.565Z,47.81
2023-02-28T06:58:34.572Z,48.19
2023-02-28T07:01:02.277Z,47.81
2023-02-28T07:03:29.975Z,48.16
2023-02-28T07:05:58.278Z,48.03
2023-02-28T07:08:28.578Z,48.19
2023-02-28T07:10:57.112Z,48.44
2023-02-28T07:13:25.570Z,47.80
2023-02-28T07:15:57.521Z,47.86
2023-02-28T07:18:25.933Z,48.50
2023-02-28T07:20:54.024Z,48.17
2023-02-28T07:23:22.423Z,48.31
2023-02-28T07:25:52.228Z,48.26
2023-02-28T07:28:19.978Z,47.70
2023-02-28T07:30:49.077Z,48.33
2023-02-28T07:33:17.258Z,48.01
2023-02-28T07:35:45.291Z,48.08
2023-02-28T07:38:14.605Z,47.51
2023-02-28T07:40:42.364Z,47.98
2023-02-28T07:43:11.486Z,47.60
2023-02-28T07:45:39.320Z,47.91
2023-02-28T07:48:07.741Z,47.85
2023-02-28T07:50:36.001Z,47.33
2023-02-28T07:53:03.862Z,47.37
2023-02-28T07:55:31.626Z,47.26
2023-02-28T07:57:59.843Z,47.69
2023-02-28T08:00:30.023Z,47.02
2023-02-28T08:02:57.781Z,47.07
2023-02-28T08:05:25.600Z,47.87
2023-02-28T08:07:54.317Z,48.10
2023-02-28T08:10:22.057Z,47.78
2023-02-28T08:12:49.858Z,48.06
2023-02-28T08:15:17.839Z,47.20
2023-02-28T08:17:47.009Z,47.28
2023-02-28T08:20:14.877Z,47.37
2023-02-28T08:22:44.802Z,47.51
2023-02-28T08:25:15.675Z,46.64
2023-02-28T08:27:43.685Z,46.41
2023-02-28T08:30:13.263Z,46.42
2023-02-28T08:32:41.463Z,46.14
2023-02-28T08:35:11.531Z,45.84
2023-02-28T08:37:39.363Z,46.97
2023-02-28T08:40:08.617Z,46.11
2023-02-28T08:42:36.472Z,46.18
2023-02-28T08:45:04.518Z,46.20
2023-02-28T08:47:32.277Z,46.11
2023-02-28T08:49:59.964Z,45.93
2023-02-28T08:52:29.052Z,45.27
2023-02-28T08:54:56.950Z,46.39
2023-02-28T08:57:26.884Z,46.12
2023-02-28T08:59:54.626Z,46.53
2023-02-28T09:02:22.371Z,45.58
2023-02-28T09:04:50.093Z,44.93
2023-02-28T09:07:17.778Z,44.18
2023-02-28T09:09:56.641Z,43.78
2023-02-28T09:12:25.037Z,44.76
2023-02-28T09:14:52.848Z,44.19
2023-02-28T09:17:20.800Z,43.76
2023-02-28T09:19:50.190Z,43.08
2023-02-28T09:22:18.010Z,42.89
2023-02-28T09:24:47.089Z,42.77
2023-02-28T09:27:14.854Z,41.92
2023-02-28T09:29:42.689Z,41.24
2023-02-28T09:32:10.940Z,40.79
2023-02-28T09:34:39.886Z,40.51
2023-02-28T09:37:07.717Z,40.93
2023-02-28T09:39:35.534Z,40.51
2023-02-28T09:42:08.661Z,40.31
2023-02-28T09:44:40.101Z,40.22
2023-02-28T09:47:15.138Z,40.39
2023-02-28T09:49:47.231Z,39.52
2023-02-28T09:52:20.503Z,40.09
2023-02-28T09:54:48.415Z,40.49
2023-02-28T09:57:28.018Z,40.60
2023-02-28T10:00:11.340Z,40.35
2023-02-28T10:03:00.980Z,40.02
2023-02-28T10:05:32.637Z,40.32
2023-02-28T10:08:09.667Z,40.52
2023-02-28T10:10:40.479Z,41.01
2023-02-28T10:13:21.350Z,41.81
2023-02-28T10:15:52.300Z,41.58
2023-02-28T10:18:26.617Z,41.57
2023-02-28T10:20:56.817Z,41.47
2023-02-28T10:23:30.184Z,41.66
2023-02-28T10:26:02.271Z,42.30
2023-02-28T10:28:32.941Z,42.54
2023-02-28T10:31:01.344Z,43.18
2023-02-28T10:33:31.999Z,42.94
2023-02-28T10:36:00.977Z,42.10
2023-02-28T10:38:30.227Z,42.86
2023-02-28T10:41:06.833Z,42.67
2023-02-28T10:43:36.849Z,42.37
2023-02-28T10:46:07.364Z,42.53
2023-02-28T10:48:37.913Z,43.02
2023-02-28T10:51:08.946Z,43.48
2023-02-28T10:53:57.682Z,43.28
2023-02-28T10:56:28.885Z,43.10
2023-02-28T10:59:00.286Z,42.64
2023-02-28T11:01:39.448Z,42.55
2023-02-28T11:04:19.922Z,42.38
2023-02-28T11:06:48.348Z,42.58
2023-02-28T11:09:25.447Z,41.71
2023-02-28T11:11:53.976Z,42.59
2023-02-28T11:14:26.117Z,42.76
2023-02-28T11:16:55.138Z,43.04
2023-02-28T11:19:27.638Z,43.50
2023-02-28T11:21:58.735Z,43.99
2023-02-28T11:24:32.415Z,42.43
2023-02-28T11:27:00.293Z,42.63
2023-02-28T11:29:31.953Z,42.70
2023-02-28T11:32:06.237Z,42.98
2023-02-28T11:34:34.681Z,42.68
2023-02-28T11:37:05.874Z,43.54
2023-02-28T11:39:34.603Z,43.17
2023-02-28T11:42:17.050Z,43.16
2023-02-28T11:44:57.404Z,42.49
2023-02-28T11:47:35.116Z,41.58
2023-02-28T11:50:22.559Z,41.41
2023-02-28T11:52:54.385Z,40.36
2023-02-28T11:55:27.564Z,41.51
2023-02-28T11:58:07.779Z,42.05
2023-02-28T12:00:55.149Z,42.49
2023-02-28T12:03:31.053Z,43.32
2023-02-28T12:06:09.524Z,42.63
2023-02-28T12:08:49.315Z,42.46
2023-02-28T12:11:29.138Z,42.36
2023-02-28T12:14:24.288Z,43.24
2023-02-28T12:17:05.696Z,42.79
2023-02-28T12:19:44.600Z,42.37
2023-02-28T12:22:29.172Z,41.23
2023-02-28T12:25:25.914Z,41.98
2023-02-28T12:27:55.173Z,43.18
2023-02-28T12:30:26.561Z,42.52
2023-02-28T12:33:00.232Z,41.61
2023-02-28T12:35:35.706Z,42.90
2023-02-28T12:38:08.136Z,42.76
2023-02-28T12:40:47.093Z,42.78
2023-02-28T12:43:18.309Z,42.21
2023-02-28T12:45:50.814Z,42.59
2023-02-28T12:48:26.244Z,42.75
2023-02-28T12:50:54.200Z,43.18
2023-02-28T12:53:29.782Z,42.90
2023-02-28T12:56:11.588Z,43.06
2023-02-28T12:58:45.234Z,42.49
2023-02-28T13:01:38.465Z,42.96
2023-02-28T13:04:32.214Z,42.58
2023-02-28T13:07:17.843Z,42.78
2023-02-28T13:09:54.742Z,43.35
2023-02-28T13:12:23.809Z,43.46
2023-02-28T13:14:52.287Z,44.05
2023-02-28T13:17:22.302Z,43.47
2023-02-28T13:20:01.336Z,42.47
2023-02-28T13:22:41.872Z,42.42
2023-02-28T13:25:42.984Z,42.69
2023-02-28T13:28:12.370Z,43.05
2023-02-28T13:31:06.046Z,43.36
2023-02-28T13:33:35.029Z,43.17
2023-02-28T13:36:11.312Z,42.91
2023-02-28T13:38:42.444Z,42.79
2023-02-28T13:41:48.423Z,41.08
2023-02-28T13:44:19.227Z,40.65
2023-02-28T13:47:26.697Z,40.67
2023-02-28T13:49:55.013Z,40.89
2023-02-28T13:52:26.694Z,41.58
2023-02-28T13:55:26.365Z,40.65
2023-02-28T13:58:13.910Z,41.58
2023-02-28T14:01:02.119Z,41.64
2023-02-28T14:03:47.031Z,40.90
2023-02-28T14:06:24.710Z,41.82
2023-02-28T14:09:00.984Z,41.25
2023-02-28T14:11:32.999Z,39.97
2023-02-28T14:14:02.190Z,40.58
2023-02-28T14:16:40.302Z,41.46
2023-02-28T14:19:14.791Z,41.16
2023-02-28T14:21:54.564Z,40.88
2023-02-28T14:24:45.527Z,40.17
2023-02-28T14:27:31.800Z,39.21
2023-02-28T14:30:47.348Z,38.61
2023-02-28T14:33:45.503Z,38.06
2023-02-28T14:36:15.949Z,38.45
2023-02-28T14:38:48.153Z,38.54
2023-02-28T14:41:24.132Z,39.00
2023-02-28T14:43:55.785Z,39.23
2023-02-28T14:46:28.322Z,38.94
2023-02-28T14:48:56.672Z,39.15
2023-02-28T14:51:25.911Z,39.58
2023-02-28T14:53:59.409Z,40.63
2023-02-28T14:56:32.977Z,39.38
2023-02-28T14:59:00.710Z,39.26
2023-02-28T15:01:28.588Z,39.59
2023-02-28T15:04:04.783Z,39.15
2023-02-28T15:06:33.870Z,39.62
2023-02-28T15:09:19.475Z,39.90
2023-02-28T15:11:51.964Z,40.09
2023-02-28T15:14:22.269Z,40.27
2023-02-28T15:16:54.655Z,39.71
2023-02-28T15:19:26.343Z,40.34
2023-02-28T15:21:59.832Z,40.93
2023-02-28T15:24:37.106Z,40.45
2023-02-28T15:27:08.642Z,41.39
2023-02-28T15:29:45.209Z,41.19
2023-02-28T15:32:28.294Z,40.93
2023-02-28T15:34:56.875Z,41.62
2023-02-28T15:37:39.743Z,41.46
2023-02-28T15:40:15.138Z,41.28
2023-02-28T15:42:45.656Z,41.11
2023-02-28T15:45:30.828Z,40.92
2023-02-28T15:48:12.288Z,41.35
2023-02-28T15:50:42.221Z,39.44
2023-02-28T15:53:15.802Z,39.00
2023-02-28T15:55:43.963Z,39.07
2023-02-28T15:58:14.920Z,38.96
2023-02-28T16:00:50.477Z,38.75
2023-02-28T16:03:29.115Z,37.20
2023-02-28T16:06:28.113Z,37.16
2023-02-28T16:08:55.884Z,37.32
2023-02-28T16:11:24.142Z,38.21
2023-02-28T16:13:54.377Z,37.94
2023-02-28T16:16:25.565Z,38.32
2023-02-28T16:18:54.056Z,38.15
2023-02-28T16:21:21.851Z,38.34
2023-02-28T16:23:49.586Z,38.42
2023-02-28T16:26:23.383Z,39.16
2023-02-28T16:28:53.457Z,39.27
2023-02-28T16:31:22.087Z,39.11
2023-02-28T16:33:49.862Z,39.07
2023-02-28T16:36:19.925Z,39.40
2023-02-28T16:38:47.772Z,39.43
2023-02-28T16:41:19.973Z,39.58
2023-02-28T16:43:50.377Z,39.90
2023-02-28T16:46:20.595Z,39.77
2023-02-28T16:48:52.132Z,39.96
2023-02-28T16:51:20.257Z,40.21
2023-02-28T16:53:48.229Z,39.98
2023-02-28T16:56:19.182Z,40.60
2023-02-28T16:58:47.704Z,40.62
2023-02-28T17:01:16.091Z,40.50
2023-02-28T17:03:45.325Z,40.87
2023-02-28T17:06:19.988Z,40.84
2023-02-28T17:08:48.182Z,40.33
2023-02-28T17:11:15.908Z,40.46
2023-02-28T17:13:43.622Z,40.79
2023-02-28T17:16:20.253Z,40.48
2023-02-28T17:18:49.473Z,40.96
2023-02-28T17:21:17.970Z,40.69
2023-02-28T17:23:45.865Z,41.19
2023-02-28T17:26:18.486Z,41.30
2023-02-28T17:28:46.192Z,40.81
2023-02-28T17:31:14.597Z,39.39
2023-02-28T17:33:42.550Z,40.20
2023-02-28T17:36:15.958Z,39.51
2023-02-28T17:38:44.125Z,38.90
2023-02-28T17:41:12.921Z,39.17
2023-02-28T17:43:41.234Z,39.00
2023-02-28T17:46:18.706Z,39.14
2023-02-28T17:48:46.573Z,39.67
2023-02-28T17:51:17.248Z,39.68
2023-02-28T17:53:45.202Z,40.00
2023-02-28T17:56:15.189Z,40.46
2023-02-28T17:58:43.063Z,40.28
2023-02-28T18:01:10.896Z,40.91
2023-02-28T18:03:38.736Z,40.10
2023-02-28T18:06:07.325Z,40.27
2023-02-28T18:08:37.044Z,39.75
2023-02-28T18:11:04.901Z,39.38
2023-02-28T18:13:32.598Z,38.22
2023-02-28T18:16:00.481Z,38.37
2023-02-28T18:18:28.550Z,39.20
2023-02-28T18:20:56.462Z,39.76
2023-02-28T18:23:24.196Z,39.79
2023-02-28T18:25:54.078Z,39.84
2023-02-28T18:28:21.799Z,40.31
2023-02-28T18:30:49.476Z,40.34
2023-02-28T18:33:17.534Z,40.48
2023-02-28T18:35:45.470Z,39.56
2023-02-28T18:38:16.000Z,39.43
2023-02-28T18:40:44.901Z,38.67
2023-02-28T18:43:15.134Z,39.22
2023-02-28T18:45:43.273Z,38.31
2023-02-28T18:48:11.050Z,38.25
2023-02-28T18:50:39.738Z,38.61
2023-02-28T18:53:07.466Z,39.19
2023-02-28T18:55:35.375Z,39.51
2023-02-28T18:58:03.223Z,39.55
2023-02-28T19:00:32.426Z,40.19
2023-02-28T19:03:00.315Z,40.44
2023-02-28T19:05:30.996Z,40.53
2023-02-28T19:07:58.771Z,40.59
2023-02-28T19:10:26.537Z,40.76
2023-02-28T19:12:54.279Z,41.22
2023-02-28T19:15:22.133Z,40.09
2023-02-28T19:17:51.246Z,40.73
2023-02-28T19:20:19.824Z,40.79
2023-02-28T19:22:47.554Z,40.26
2023-02-28T19:25:15.332Z,40.57
2023-02-28T19:27:43.701Z,40.45
2023-02-28T19:30:12.726Z,40.55
2023-02-28T19:32:40.523Z,40.71
2023-02-28T19:35:10.333Z,41.31
2023-02-28T19:37:39.275Z,41.10
2023-02-28T19:40:08.769Z,41.07
2023-02-28T19:42:36.858Z,40.71
2023-02-28T19:45:05.536Z,40.68
2023-02-28T19:47:33.273Z,41.18
2023-02-28T19:50:02.263Z,40.65
2023-02-28T19:52:31.332Z,41.10
2023-02-28T19:54:59.094Z,41.61
2023-02-28T19:57:26.998Z,41.96
2023-02-28T19:59:54.706Z,40.55
2023-02-28T20:02:23.086Z,41.29
2023-02-28T20:04:52.063Z,41.58
2023-02-28T20:07:21.201Z,41.81
2023-02-28T20:09:50.416Z,41.33
2023-02-28T20:12:26.144Z,41.39
2023-02-28T20:14:55.997Z,41.68
2023-02-28T20:17:24.298Z,41.77
2023-02-28T20:19:52.063Z,41.29
2023-02-28T20:22:19.827Z,41.58
2023-02-28T20:24:50.901Z,41.19
2023-02-28T20:27:18.648Z,41.59
2023-02-28T20:29:46.378Z,42.06
2023-02-28T20:32:14.227Z,41.92
2023-02-28T20:34:42.187Z,41.44
2023-02-28T20:37:09.893Z,41.35
2023-02-28T20:39:37.684Z,41.25
2023-02-28T20:42:07.299Z,41.98
2023-02-28T20:44:35.045Z,41.39
2023-02-28T20:47:03.721Z,41.40
2023-02-28T20:49:31.503Z,41.74
2023-02-28T20:51:59.296Z,41.97
2023-02-28T20:54:28.679Z,42.11
2023-02-28T20:56:56.405Z,41.71
2023-02-28T20:59:26.285Z,41.94
2023-02-28T21:01:56.242Z,41.75
2023-02-28T21:04:24.053Z,41.50
2023-02-28T21:06:51.947Z,41.60
2023-02-28T21:09:20.334Z,41.98
2023-02-28T21:11:48.301Z,42.03
2023-02-28T21:14:17.666Z,41.85
2023-02-28T21:16:46.934Z,41.70
2023-02-28T21:19:14.752Z,41.73
2023-02-28T21:21:44.973Z,41.78
2023-02-28T21:24:14.016Z,42.06
2023-02-28T21:26:44.354Z,41.25
2023-02-28T21:29:13.484Z,41.89
2023-02-28T21:31:41.547Z,41.54
2023-02-28T21:34:13.329Z,42.04
2023-02-28T21:36:45.610Z,41.53
2023-02-28T21:39:16.308Z,41.72
2023-02-28T21:41:44.292Z,41.89
2023-02-28T21:44:18.757Z,42.12
2023-02-28T21:46:47.504Z,41.78
2023-02-28T21:49:17.427Z,42.04
2023-02-28T21:51:45.565Z,41.94
2023-02-28T21:54:13.885Z,41.52
2023-02-28T21:56:42.136Z,42.21
2023-02-28T21:59:09.865Z,42.25
2023-02-28T22:01:39.470Z,42.09
2023-02-28T22:04:08.863Z,42.38
2023-02-28T22:06:40.898Z,42.31
2023-02-28T22:09:10.543Z,42.55
2023-02-28T22:11:39.354Z,42.20
2023-02-28T22:14:09.321Z,42.27
2023-02-28T22:16:50.634Z,42.22
2023-02-28T22:19:20.068Z,42.49
2023-02-28T22:21:49.843Z,42.53
2023-02-28T22:24:20.566Z,42.38
2023-02-28T22:26:50.450Z,42.72
2023-02-28T22:29:18.288Z,42.61
2023-02-28T22:31:46.449Z,42.62
2023-02-28T22:34:14.704Z,42.69
2023-02-28T22:36:43.132Z,42.16
2023-02-28T22:39:13.053Z,42.42
2023-02-28T22:41:41.229Z,42.50
2023-02-28T22:44:09.249Z,42.62
2023-02-28T22:46:37.306Z,42.26
2023-02-28T22:49:06.675Z,42.32
2023-02-28T22:51:35.168Z,42.54
2023-02-28T22:54:04.445Z,42.57
2023-02-28T22:56:33.845Z,42.38
2023-02-28T22:59:02.503Z,42.72
2023-02-28T23:01:32.719Z,42.89
2023-02-28T23:04:02.758Z,42.63
2023-02-28T23:06:33.515Z,42.74
2023-02-28T23:09:03.285Z,43.09
2023-02-28T23:11:35.165Z,42.75
2023-02-28T23:14:02.963Z,42.61
2023-02-28T23:16:32.791Z,42.77
2023-02-28T23:19:02.834Z,42.49
2023-02-28T23:21:31.104Z,42.99
2023-02-28T23:23:59.159Z,42.69
2023-02-28T23:26:26.857Z,42.59
2023-02-28T23:28:56.139Z,42.61
2023-02-28T23:31:24.087Z,42.76
2023-02-28T23:33:52.084Z,42.89
2023-02-28T23:36:20.097Z,42.68
2023-02-28T23:38:49.417Z,42.79
2023-02-28T23:41:18.076Z,42.49
2023-02-28T23:43:46.523Z,42.63
2023-02-28T23:46:16.556Z,42.63
2023-02-28T23:48:44.279Z,43.06
2023-02-28T23:51:14.753Z,42.87
2023-02-28T23:53:44.946Z,42.37
2023-02-28T23:56:15.202Z,42.81
2023-02-28T23:58:43.718Z,42.77
